Time;durP1;ratioP1;P1;durP2;ratioP2;P2;SDS_P1;SDS_P2;PMS_P1;PMS_P2;Temp;Humidity;BMP_temperature;BMP_pressure;BME280_temperature;BME280_humidity;BME280_pressure;Samples;Min_cycle;Max_cycle;Signal;HPM_P1;HPM_P2
2022/03/20 00:00:24;;;;;;;;;2.50;2.50;;;;;11.66;33.74;102219.34;5060282;28;45257;-47
2022/03/20 00:02:49;;;;;;;;;3.25;3.25;;;;;11.64;33.99;102215.84;5059879;28;45435;-45
2022/03/20 00:05:15;;;;;;;;;1.75;1.75;;;;;11.56;33.84;102205.28;5060055;28;45537;-45
2022/03/20 00:07:41;;;;;;;;;3.50;3.00;;;;;11.57;34.04;102206.16;5059731;28;45608;-45
2022/03/20 00:10:08;;;;;;;;;5.50;4.50;;;;;11.54;34.04;102207.88;5045366;28;45347;-48
2022/03/20 00:12:37;;;;;;;;;3.00;3.00;;;;;11.51;34.06;102197.34;5058753;28;45245;-46
2022/03/20 00:15:04;;;;;;;;;3.75;2.00;;;;;11.48;33.96;102199.06;5046087;28;45365;-45
2022/03/20 00:17:30;;;;;;;;;7.00;5.00;;;;;11.46;34.14;102204.34;5057224;28;45307;-45
2022/03/20 00:19:56;;;;;;;;;4.25;3.75;;;;;11.44;33.98;102199.94;5059739;28;45315;-47
2022/03/20 00:22:22;;;;;;;;;3.50;3.25;;;;;11.37;34.22;102191.13;5059752;28;45319;-45
2022/03/20 00:24:48;;;;;;;;;2.75;2.50;;;;;11.36;33.92;102190.25;5059635;28;45351;-46
2022/03/20 00:27:14;;;;;;;;;2.75;2.75;;;;;11.34;34.08;102191.97;5059366;28;47024;-45
2022/03/20 00:29:40;;;;;;;;;2.00;2.00;;;;;11.30;34.05;102198.09;5059686;28;45364;-48
2022/03/20 00:32:08;;;;;;;;;4.00;3.00;;;;;11.28;34.17;102201.59;5059542;28;45295;-47
2022/03/20 00:34:34;;;;;;;;;6.00;3.50;;;;;11.24;34.08;102197.19;5059329;28;45494;-47
2022/03/20 00:37:00;;;;;;;;;3.00;3.00;;;;;11.17;34.26;102199.78;5058005;28;47529;-46
2022/03/20 00:39:25;;;;;;;;;4.50;2.25;;;;;11.17;34.19;102197.16;5059245;28;45295;-46
2022/03/20 00:41:51;;;;;;;;;3.00;3.00;;;;;11.15;34.25;102195.38;5059336;28;45330;-47
2022/03/20 00:44:16;;;;;;;;;3.75;3.50;;;;;11.13;34.20;102197.13;5058164;28;45322;-45
2022/03/20 00:46:41;;;;;;;;;2.25;2.25;;;;;11.07;34.18;102197.97;5059222;28;45470;-47
2022/03/20 00:49:07;;;;;;;;;2.00;2.00;;;;;11.02;34.33;102184.78;5059225;28;45271;-46
2022/03/20 00:51:33;;;;;;;;;4.00;4.00;;;;;11.01;34.25;102182.13;5058678;28;45429;-49
2022/03/20 00:53:59;;;;;;;;;3.00;3.00;;;;;10.97;34.49;102178.59;5059404;28;45406;-46
2022/03/20 00:56:25;;;;;;;;;2.25;2.25;;;;;10.94;34.48;102181.19;5060886;28;45928;-47
2022/03/20 00:58:50;;;;;;;;;3.25;2.00;;;;;10.91;34.47;102178.56;5062433;28;45362;-46
2022/03/20 01:01:15;;;;;;;;;2.00;2.00;;;;;10.88;34.35;102181.19;5061849;28;45379;-45
2022/03/20 01:03:42;;;;;;;;;3.25;2.25;;;;;10.85;34.45;102170.63;5062355;28;45516;-46
2022/03/20 01:06:08;;;;;;;;;3.50;2.00;;;;;10.81;34.59;102174.97;5062363;28;46378;-45
2022/03/20 01:08:34;;;;;;;;;2.75;2.75;;;;;10.80;34.33;102175.84;5055368;28;45423;-48
2022/03/20 01:11:07;;;;;;;;;2.25;1.75;;;;;10.77;34.55;102169.66;5054557;28;45419;-47
2022/03/20 01:13:33;;;;;;;;;2.50;2.50;;;;;10.75;34.37;102176.69;5049752;28;45234;-48
2022/03/20 01:16:00;;;;;;;;;3.00;3.00;;;;;10.71;34.48;102178.41;5059323;28;47062;-47
2022/03/20 01:18:25;;;;;;;;;2.50;2.50;;;;;10.69;34.51;102169.59;5062285;28;45279;-48
2022/03/20 01:20:54;;;;;;;;;4.50;3.25;;;;;10.66;34.69;102175.72;5062304;28;45307;-47
2022/03/20 01:23:21;;;;;;;;;3.50;3.25;;;;;10.63;34.52;102165.19;5062723;28;45257;-49
2022/03/20 01:25:47;;;;;;;;;2.00;2.00;;;;;10.62;34.65;102167.81;5061853;28;46259;-51
2022/03/20 01:28:13;;;;;;;;;2.00;1.75;;;;;10.59;34.75;102158.16;5062391;28;45146;-45
2022/03/20 01:30:39;;;;;;;;;2.25;2.25;;;;;10.57;34.56;102166.00;5062172;28;45319;-46
2022/03/20 01:33:04;;;;;;;;;5.50;3.00;;;;;10.54;34.59;102155.47;5062024;28;45371;-48
2022/03/20 01:35:30;;;;;;;;;2.75;1.75;;;;;10.52;34.78;102156.34;5061748;28;46999;-46
2022/03/20 01:37:55;;;;;;;;;2.75;1.50;;;;;10.49;34.45;102153.66;5062322;28;45323;-50
2022/03/20 01:40:20;;;;;;;;;3.00;3.00;;;;;10.47;34.89;102155.41;5060764;28;45883;-50
2022/03/20 01:42:46;;;;;;;;;4.00;3.00;;;;;10.46;34.71;102156.28;5062094;28;45311;-49
2022/03/20 01:45:13;;;;;;;;;4.00;1.75;;;;;10.42;34.81;102147.50;5061837;28;46131;-47
2022/03/20 01:47:38;;;;;;;;;2.00;2.00;;;;;10.41;34.74;102150.97;5061826;28;45319;-46
2022/03/20 01:50:04;;;;;;;;;3.00;3.00;;;;;10.34;34.91;102147.38;5061946;28;45306;-46
2022/03/20 01:52:29;;;;;;;;;4.75;4.00;;;;;10.34;34.69;102150.03;5060652;28;45470;-51
2022/03/20 01:54:55;;;;;;;;;3.00;3.00;;;;;10.33;34.77;102148.25;5061498;28;46122;-46
2022/03/20 01:57:21;;;;;;;;;3.50;2.25;;;;;10.31;34.87;102139.47;5060585;28;45297;-46
2022/03/20 01:59:48;;;;;;;;;2.50;2.50;;;;;10.29;34.80;102135.06;5061842;28;45458;-50
2022/03/20 02:02:13;;;;;;;;;3.50;3.50;;;;;10.27;34.99;102135.06;5061463;28;45520;-46
2022/03/20 02:04:39;;;;;;;;;2.75;2.75;;;;;10.27;34.93;102126.31;5061457;28;45367;-49
2022/03/20 02:07:06;;;;;;;;;2.00;2.00;;;;;10.24;34.93;102124.53;5061756;28;45652;-49
2022/03/20 02:09:35;;;;;;;;;2.25;2.00;;;;;10.21;35.22;102121.84;5047875;28;45240;-48
2022/03/20 02:12:01;;;;;;;;;2.00;2.00;;;;;10.19;35.05;102119.22;5061615;28;45485;-48
2022/03/20 02:14:27;;;;;;;;;4.00;2.00;;;;;10.18;35.06;102106.09;5061263;28;46091;-47
2022/03/20 02:16:53;;;;;;;;;2.25;2.25;;;;;10.15;35.22;102109.56;5058716;28;45446;-46
2022/03/20 02:19:19;;;;;;;;;3.50;3.50;;;;;10.11;35.40;102113.00;5059858;28;45409;-46
2022/03/20 02:21:47;;;;;;;;;3.50;3.25;;;;;10.01;34.98;102098.03;5061406;28;45225;-46
2022/03/20 02:24:28;;;;;;;;;4.00;3.00;;;;;10.05;35.46;102103.34;5061149;28;45327;-51
2022/03/20 02:27:18;;;;;;;;;2.00;2.00;;;;;10.01;35.38;102101.56;5061338;28;45423;-47
2022/03/20 02:29:49;;;;;;;;;4.00;2.25;;;;;9.99;35.47;102108.53;5049063;28;45328;-48
2022/03/20 02:32:17;;;;;;;;;2.75;2.75;;;;;9.95;35.59;102106.75;5059496;28;46132;-47
2022/03/20 02:34:46;;;;;;;;;2.50;2.50;;;;;9.94;35.52;102099.72;5059880;28;46211;-48
2022/03/20 02:37:12;;;;;;;;;2.25;2.25;;;;;9.90;35.18;102098.81;5059740;28;45701;-48
2022/03/20 02:39:37;;;;;;;;;2.25;2.00;;;;;9.87;35.49;102093.53;5061202;28;45222;-47
2022/03/20 02:42:05;;;;;;;;;2.00;2.00;;;;;9.85;35.59;102089.09;5060813;28;45588;-46
2022/03/20 02:44:56;;;;;;;;;2.75;2.75;;;;;9.82;35.67;102092.56;5061313;28;45339;-46
2022/03/20 02:47:26;;;;;;;;;3.50;3.50;;;;;9.79;35.46;102094.31;5060790;28;45217;-48
2022/03/20 02:50:00;;;;;;;;;3.25;2.75;;;;;9.74;35.71;102082.00;5060974;28;45357;-46
2022/03/20 02:52:46;;;;;;;;;2.00;2.00;;;;;9.71;35.74;102089.84;5093728;27;45953;-46
2022/03/20 02:55:12;;;;;;;;;2.75;2.00;;;;;9.68;35.86;102089.81;5059118;28;48459;-49
2022/03/20 02:57:37;;;;;;;;;3.25;2.00;;;;;9.65;35.89;102086.25;5060752;28;45272;-48
2022/03/20 03:00:05;;;;;;;;;5.00;3.50;;;;;9.62;35.86;102084.50;5060571;28;45333;-48
2022/03/20 03:02:35;;;;;;;;;2.00;2.00;;;;;9.58;35.64;102080.97;5060689;28;45184;-46
2022/03/20 03:05:00;;;;;;;;;3.75;3.00;;;;;9.56;36.17;102079.19;5060468;28;46250;-49
2022/03/20 03:07:28;;;;;;;;;2.50;2.50;;;;;9.53;36.09;102077.38;5060598;28;45319;-50
2022/03/20 03:12:38;;;;;;;;;2.00;2.00;;;;;9.44;36.18;102067.66;5060340;28;45345;-48
2022/03/20 03:15:19;;;;;;;;;2.75;2.00;;;;;9.40;35.90;102070.25;5058445;28;45432;-49
2022/03/20 03:17:49;;;;;;;;;4.00;4.00;;;;;9.37;36.10;102070.22;5055333;28;45403;-48
2022/03/20 03:20:17;;;;;;;;;3.00;3.00;;;;;9.33;36.06;102063.16;5059098;28;45346;-46
2022/03/20 03:22:42;;;;;;;;;2.75;2.75;;;;;9.29;36.08;102064.88;5058918;28;45462;-46
2022/03/20 03:25:08;;;;;;;;;2.75;1.50;;;;;9.26;36.51;102064.84;5060171;28;46123;-47
2022/03/20 03:27:34;;;;;;;;;2.00;2.00;;;;;9.22;36.44;102065.66;5059100;28;45427;-46
2022/03/20 03:29:59;;;;;;;;;5.00;3.75;;;;;9.20;36.37;102067.38;5059077;28;45476;-47
2022/03/20 03:32:25;;;;;;;;;4.25;3.00;;;;;9.15;36.34;102061.22;5059872;28;45445;-48
2022/03/20 03:37:35;;;;;;;;;5.50;2.75;;;;;9.09;36.73;102062.91;5060097;28;45307;-47
2022/03/20 03:40:03;;;;;;;;;3.00;3.00;;;;;9.02;36.62;102047.94;5059995;28;45469;-49
2022/03/20 03:42:33;;;;;;;;;3.25;3.00;;;;;9.03;36.60;102060.19;5050619;28;45166;-51
2022/03/20 03:44:58;;;;;;;;;3.75;2.50;;;;;9.00;36.59;102068.00;5059805;28;47105;-47
2022/03/20 03:47:24;;;;;;;;;4.00;4.00;;;;;8.94;36.88;102066.19;5058527;28;45339;-46
2022/03/20 03:49:50;;;;;;;;;7.00;4.75;;;;;8.93;36.76;102064.41;5059906;28;45249;-51
2022/03/20 03:52:16;;;;;;;;;3.00;2.75;;;;;8.90;36.88;102058.25;5058751;28;45370;-48
2022/03/20 03:54:42;;;;;;;;;4.75;4.50;;;;;8.87;37.06;102060.84;5059429;28;45447;-47
2022/03/20 03:57:08;;;;;;;;;3.00;3.00;;;;;8.85;36.94;102062.56;5059869;28;45300;-46
2022/03/20 03:59:33;;;;;;;;;5.00;4.50;;;;;8.81;37.14;102058.13;5059961;28;45307;-48
2022/03/20 04:02:00;;;;;;;;;4.00;3.00;;;;;8.79;36.93;102068.56;5058624;28;45469;-47
2022/03/20 04:04:26;;;;;;;;;4.00;2.25;;;;;8.74;37.15;102065.00;5059641;28;47135;-47
2022/03/20 04:06:51;;;;;;;;;3.00;3.00;;;;;8.73;37.13;102065.84;5058452;28;45459;-46
2022/03/20 04:09:16;;;;;;;;;5.00;4.00;;;;;8.71;37.09;102078.06;5047085;28;45424;-47
2022/03/20 04:11:42;;;;;;;;;3.50;3.25;;;;;8.67;37.07;102071.03;5058544;28;45152;-46
2022/03/20 04:14:08;;;;;;;;;6.25;5.25;;;;;8.65;37.17;102073.63;5058372;28;47240;-50
2022/03/20 04:16:34;;;;;;;;;2.75;2.75;;;;;8.61;37.17;102059.56;5056809;28;45424;-47
2022/03/20 04:18:59;;;;;;;;;4.50;4.50;;;;;8.59;37.39;102063.03;5059678;28;45321;-55
2022/03/20 04:21:25;;;;;;;;;5.00;5.00;;;;;8.56;37.50;102071.72;5058400;28;45676;-52
2022/03/20 04:23:50;;;;;;;;;4.50;4.50;;;;;8.48;37.16;102057.66;5059719;28;46013;-48
2022/03/20 04:26:18;;;;;;;;;7.75;4.00;;;;;8.52;37.36;102069.06;5058293;28;45320;-51
2022/03/20 04:28:46;;;;;;;;;4.25;4.25;;;;;8.49;37.80;102072.53;5059867;28;45233;-50
2022/03/20 04:31:15;;;;;;;;;4.50;4.50;;;;;8.48;37.58;102075.09;5048668;28;45316;-46
2022/03/20 04:33:51;;;;;;;;;4.50;4.00;;;;;8.41;37.67;102058.38;5062613;28;45732;-46
2022/03/20 04:36:21;;;;;;;;;4.00;3.25;;;;;8.38;37.93;102058.34;5061647;28;45379;-44
2022/03/20 04:38:47;;;;;;;;;5.25;5.25;;;;;8.38;37.83;102063.56;5045410;28;45264;-46
2022/03/20 04:41:13;;;;;;;;;5.25;4.50;;;;;8.35;37.76;102064.41;5062702;28;45551;-50
2022/03/20 04:43:38;;;;;;;;;5.00;5.00;;;;;8.33;37.99;102055.63;5062565;28;46072;-48
2022/03/20 04:46:03;;;;;;;;;4.00;3.50;;;;;8.32;37.99;102055.63;5063243;28;45327;-46
2022/03/20 04:59:26;;;;;;;;;5.00;5.00;;;;;8.17;38.44;102053.63;5062864;28;45272;-46
2022/03/20 05:01:51;;;;;;;;;6.50;5.00;;;;;8.14;38.11;102049.22;5061047;28;45628;-46
2022/03/20 05:04:17;;;;;;;;;4.00;4.00;;;;;8.12;38.18;102053.53;5060910;28;47651;-47
2022/03/20 05:06:43;;;;;;;;;6.75;5.00;;;;;8.09;38.15;102064.84;5062459;28;45193;-47
2022/03/20 05:14:36;;;;;;;;;9.00;7.00;;;;;8.02;38.27;102057.72;5062223;28;45375;-46
2022/03/20 05:17:06;;;;;;;;;4.75;2.50;;;;;8.01;38.62;102068.19;5059403;28;45296;-47
2022/03/20 05:19:36;;;;;;;;;5.00;4.75;;;;;7.97;38.55;102060.28;5062353;28;45319;-46
2022/03/20 05:22:09;;;;;;;;;6.00;6.00;;;;;7.94;38.70;102054.97;5062242;28;45470;-47
2022/03/20 05:24:35;;;;;;;;;7.75;7.00;;;;;7.93;38.63;102054.97;5061934;28;47107;-47
2022/03/20 05:27:00;;;;;;;;;6.00;3.75;;;;;7.92;38.45;102050.56;5062147;28;45331;-50
2022/03/20 05:29:26;;;;;;;;;1.00;0.00;;;;;7.92;38.56;102058.41;5062175;28;45217;-49
2022/03/20 05:31:53;;;;;;;;;6.00;5.50;;;;;7.89;38.64;102063.63;5062338;28;45220;-47
2022/03/20 05:34:19;;;;;;;;;6.50;6.00;;;;;7.86;38.57;102055.69;5077555;28;47285;-49
2022/03/20 05:36:45;;;;;;;;;6.50;5.25;;;;;7.85;39.02;102062.69;5062136;28;45351;-46
2022/03/20 05:39:10;;;;;;;;;6.75;6.75;;;;;7.83;38.89;102058.28;5061983;28;45370;-48
2022/03/20 05:41:48;;;;;;;;;11.50;7.50;;;;;7.83;38.73;102060.88;5061453;28;45600;-47
2022/03/20 05:44:19;;;;;;;;;6.00;6.00;;;;;7.80;38.86;102065.19;5062064;28;45310;-50
2022/03/20 05:46:46;;;;;;;;;5.00;5.00;;;;;7.78;38.84;102058.19;5061854;28;45339;-48
2022/03/20 05:49:12;;;;;;;;;6.25;5.00;;;;;7.76;39.05;102045.06;5061936;28;45388;-47
2022/03/20 05:51:38;;;;;;;;;7.00;6.00;;;;;7.75;39.07;102045.91;5060304;28;45481;-47
2022/03/20 05:54:05;;;;;;;;;5.75;5.50;;;;;7.70;39.09;102044.97;5061509;28;46545;-50
2022/03/20 05:59:15;;;;;;;;;8.00;6.50;;;;;7.67;39.14;102041.41;5062036;28;45241;-47
2022/03/20 06:01:41;;;;;;;;;13.00;7.75;;;;;7.65;39.29;102037.00;5061388;28;45240;-49
2022/03/20 06:04:08;;;;;;;;;6.50;6.50;;;;;7.64;39.18;102040.47;5061118;28;46267;-49
2022/03/20 06:06:35;;;;;;;;;6.50;6.00;;;;;7.63;39.36;102046.59;5061528;28;45378;-47
2022/03/20 06:09:02;;;;;;;;;8.00;5.75;;;;;7.60;39.35;102040.41;5050916;28;45490;-46
2022/03/20 06:11:27;;;;;;;;;5.75;5.00;;;;;7.60;39.34;102049.13;5058574;28;45386;-50
2022/03/20 06:13:53;;;;;;;;;5.50;5.25;;;;;7.60;39.38;102051.75;5061337;28;45354;-49
2022/03/20 06:16:21;;;;;;;;;6.50;5.25;;;;;7.59;39.46;102049.97;5058573;28;45276;-48
2022/03/20 06:18:47;;;;;;;;;6.25;5.50;;;;;7.59;39.61;102062.19;5059945;28;45335;-48
2022/03/20 06:21:13;;;;;;;;;8.00;5.75;;;;;7.56;39.57;102059.50;5061184;28;45620;-47
2022/03/20 06:23:38;;;;;;;;;7.00;6.00;;;;;7.56;39.70;102057.78;5059973;28;46786;-57
2022/03/20 06:26:04;;;;;;;;;8.00;8.00;;;;;7.55;39.48;102060.38;5061076;28;45498;-46
2022/03/20 06:28:30;;;;;;;;;6.00;6.00;;;;;7.54;39.71;102069.06;5061472;28;45335;-48
2022/03/20 06:30:56;;;;;;;;;7.50;7.00;;;;;7.53;39.61;102059.44;5061136;28;45565;-48
2022/03/20 06:33:21;;;;;;;;;4.00;4.00;;;;;7.52;39.72;102062.91;5061060;28;46177;-51
2022/03/20 06:35:47;;;;;;;;;9.50;8.25;;;;;7.52;39.87;102065.53;5060817;28;45392;-45
2022/03/20 06:38:13;;;;;;;;;6.25;5.50;;;;;7.50;39.77;102068.13;5061401;28;45327;-48
2022/03/20 06:40:38;;;;;;;;;6.25;4.50;;;;;7.48;39.85;102054.13;5060804;28;45325;-48
2022/03/20 06:43:05;;;;;;;;;5.75;5.00;;;;;7.48;39.84;102062.88;5060988;28;45330;-47
2022/03/20 06:45:30;;;;;;;;;6.75;6.75;;;;;7.49;39.49;102068.97;5060837;28;45158;-46
2022/03/20 06:47:55;;;;;;;;;5.75;4.00;;;;;7.44;40.01;102066.25;5060799;28;45319;-51
2022/03/20 06:50:21;;;;;;;;;8.75;7.25;;;;;7.49;39.99;102076.81;5060750;28;45215;-45
2022/03/20 06:52:47;;;;;;;;;7.75;6.75;;;;;7.48;40.07;102083.78;5059938;28;45240;-48
2022/03/20 06:55:14;;;;;;;;;6.25;5.25;;;;;7.49;40.08;102088.16;5060459;28;45165;-49
2022/03/20 06:57:41;;;;;;;;;5.75;5.25;;;;;7.49;40.13;102085.53;5060993;28;45296;-49
2022/03/20 07:00:08;;;;;;;;;6.25;6.25;;;;;7.50;40.17;102086.44;5060313;28;45469;-48
2022/03/20 07:02:34;;;;;;;;;11.25;7.50;;;;;7.51;40.12;102092.53;5060284;28;47052;-54
2022/03/20 07:05:00;;;;;;;;;11.25;9.00;;;;;7.51;40.22;102093.44;5060456;28;45174;-49
2022/03/20 07:07:26;;;;;;;;;13.00;11.00;;;;;7.53;40.13;102104.78;5060629;28;45461;-49
2022/03/20 07:09:52;;;;;;;;;12.75;9.25;;;;;7.55;40.33;102099.63;5046069;28;45590;-49
2022/03/20 07:12:18;;;;;;;;;9.75;9.75;;;;;7.57;40.24;102100.50;5060485;28;45658;-49
2022/03/20 07:14:44;;;;;;;;;9.00;8.00;;;;;7.58;39.87;102094.44;5060035;28;45228;-46
2022/03/20 07:17:12;;;;;;;;;5.00;5.00;;;;;7.61;40.33;102103.22;5057784;28;45399;-48
2022/03/20 07:19:38;;;;;;;;;14.25;10.50;;;;;7.63;40.14;102103.25;5060106;28;45248;-48
2022/03/20 07:22:05;;;;;;;;;14.00;11.00;;;;;7.67;40.36;102104.19;5060339;28;45984;-50
2022/03/20 07:24:34;;;;;;;;;15.75;13.00;;;;;7.66;40.42;102098.09;5058795;28;45290;-46
2022/03/20 07:29:44;;;;;;;;;14.75;11.75;;;;;7.72;40.58;102102.53;5048310;28;45328;-49
2022/03/20 07:32:09;;;;;;;;;11.75;10.50;;;;;7.76;40.42;102110.50;5060037;28;45394;-46
2022/03/20 07:34:37;;;;;;;;;11.25;10.00;;;;;7.78;40.42;102105.28;5060224;28;45341;-51
2022/03/20 07:37:04;;;;;;;;;17.75;12.25;;;;;7.81;40.35;102100.09;5060388;28;45250;-48
2022/03/20 07:39:30;;;;;;;;;12.00;10.25;;;;;7.85;40.70;102106.28;5058870;28;45275;-51
2022/03/20 07:41:57;;;;;;;;;16.50;16.50;;;;;7.87;40.55;102110.69;5059731;28;45228;-48
2022/03/20 07:44:23;;;;;;;;;14.75;12.75;;;;;7.91;40.55;102103.78;5060081;28;45327;-46
2022/03/20 07:46:49;;;;;;;;;18.25;15.25;;;;;7.94;40.65;102109.09;5059995;28;45208;-47
2022/03/20 07:49:14;;;;;;;;;16.75;14.50;;;;;7.96;40.71;102105.63;5060067;28;45343;-50
2022/03/20 07:51:40;;;;;;;;;15.50;13.50;;;;;8.00;40.77;102105.69;5059724;28;45460;-50
2022/03/20 07:54:05;;;;;;;;;18.00;15.75;;;;;8.01;40.61;102100.47;5059964;28;45478;-48
2022/03/20 07:56:34;;;;;;;;;19.50;17.00;;;;;8.05;40.51;102110.16;5058686;28;45307;-46
2022/03/20 07:59:06;;;;;;;;;20.75;17.25;;;;;8.09;40.70;102113.72;5059470;28;45240;-47
2022/03/20 08:01:35;;;;;;;;;22.50;17.50;;;;;8.12;40.88;102112.00;5059020;28;46604;-49
2022/03/20 08:04:02;;;;;;;;;21.50;19.25;;;;;8.16;40.68;102115.56;5059013;28;45412;-49
2022/03/20 08:06:28;;;;;;;;;18.25;17.75;;;;;8.20;40.68;102108.66;5059353;28;45451;-48
2022/03/20 08:08:53;;;;;;;;;17.50;16.00;;;;;8.24;40.88;102107.88;5053056;28;45332;-47
2022/03/20 08:11:19;;;;;;;;;23.75;20.75;;;;;8.28;40.88;102109.69;5057586;28;46011;-49
2022/03/20 08:13:45;;;;;;;;;20.25;18.75;;;;;8.33;41.02;102102.78;5059434;28;45330;-43
2022/03/20 08:16:15;;;;;;;;;25.25;20.50;;;;;8.36;40.87;102113.28;5055467;28;45522;-43
2022/03/20 08:18:44;;;;;;;;;22.50;15.75;;;;;8.39;40.88;102105.50;5059471;28;45174;-47
2022/03/20 08:21:13;;;;;;;;;20.75;20.00;;;;;8.46;41.08;102111.75;5059458;28;46230;-48
2022/03/20 08:23:39;;;;;;;;;26.50;22.50;;;;;8.50;40.95;102107.44;5059512;28;45324;-47
2022/03/20 08:26:08;;;;;;;;;20.25;19.00;;;;;8.58;40.89;102114.56;5059372;28;45281;-47
2022/03/20 08:28:35;;;;;;;;;25.75;20.50;;;;;8.65;40.95;102110.31;5058180;28;45393;-46
2022/03/20 08:31:00;;;;;;;;;22.25;18.75;;;;;8.60;41.01;102091.91;5058030;28;47422;-63
2022/03/20 08:33:27;;;;;;;;;21.50;19.00;;;;;8.77;40.67;102112.25;5057874;28;45459;-46
2022/03/20 08:35:52;;;;;;;;;23.75;19.00;;;;;8.83;40.77;102114.06;5059378;28;45299;-47
2022/03/20 08:38:17;;;;;;;;;22.50;20.00;;;;;8.88;40.96;102109.75;5059484;28;45452;-49
2022/03/20 08:40:43;;;;;;;;;23.50;18.50;;;;;8.96;40.97;102109.91;5058996;28;45428;-44
2022/03/20 08:43:15;;;;;;;;;28.25;20.50;;;;;9.02;40.99;102115.22;5059319;28;45337;-48
2022/03/20 08:45:41;;;;;;;;;27.00;20.50;;;;;9.10;40.86;102118.84;5058009;28;45336;-45
2022/03/20 08:48:07;;;;;;;;;19.25;17.75;;;;;9.17;40.85;102125.03;5057242;28;45917;-54
2022/03/20 08:50:32;;;;;;;;;18.00;17.50;;;;;9.23;41.08;102126.03;5059125;28;46216;-51
2022/03/20 08:52:58;;;;;;;;;23.75;21.50;;;;;9.29;40.87;102126.97;5067184;28;45624;-47
2022/03/20 08:55:24;;;;;;;;;23.25;23.00;;;;;9.35;40.84;102130.53;5059872;27;45490;-46
2022/03/20 08:57:52;;;;;;;;;25.75;20.75;;;;;9.43;41.00;102130.63;5057715;28;45554;-47
2022/03/20 09:00:19;;;;;;;;;24.25;21.75;;;;;9.50;40.96;102129.84;5044617;28;47400;-49
2022/03/20 09:02:46;;;;;;;;;25.00;21.00;;;;;9.59;40.95;102136.97;5058535;28;45318;-46
2022/03/20 09:05:12;;;;;;;;;23.75;17.00;;;;;9.67;41.13;102139.66;5065806;28;45462;-49
2022/03/20 09:07:48;;;;;;;;;24.00;22.00;;;;;9.75;40.92;102136.28;5064847;27;45407;-48
2022/03/20 09:10:15;;;;;;;;;28.50;23.75;;;;;9.82;40.87;102129.34;5061220;28;45533;-52
2022/03/20 09:12:45;;;;;;;;;25.50;22.75;;;;;9.92;40.81;102136.47;5058870;28;45288;-57
2022/03/20 09:15:13;;;;;;;;;21.25;20.50;;;;;10.02;40.89;102134.81;5057402;28;45444;-53
2022/03/20 09:20:24;;;;;;;;;22.25;20.75;;;;;10.21;40.83;102128.00;5062175;28;46325;-52
2022/03/20 09:22:49;;;;;;;;;26.00;22.50;;;;;10.32;40.82;102132.47;5061944;28;45368;-56
2022/03/20 09:25:15;;;;;;;;;26.75;26.25;;;;;10.43;41.05;102132.59;5062437;28;45255;-54
2022/03/20 09:27:40;;;;;;;;;22.25;19.00;;;;;10.51;40.81;102125.66;5062070;28;45659;-54
2022/03/20 09:30:06;;;;;;;;;22.50;21.50;;;;;10.62;40.82;102134.50;5062036;28;45374;-56
2022/03/20 09:32:32;;;;;;;;;23.00;23.00;;;;;10.73;40.92;102134.59;5061277;28;45408;-53
2022/03/20 09:34:57;;;;;;;;;17.75;16.25;;;;;10.85;40.75;102139.94;5062121;28;45458;-54
2022/03/20 09:37:22;;;;;;;;;23.50;23.25;;;;;10.95;40.80;102130.34;5061903;28;45365;-53
2022/03/20 09:39:48;;;;;;;;;25.50;24.25;;;;;11.06;40.74;102125.19;5061871;28;45267;-52
2022/03/20 09:42:13;;;;;;;;;24.50;23.50;;;;;11.16;40.75;102131.38;5062008;28;45298;-54
2022/03/20 09:44:40;;;;;;;;;29.25;27.00;;;;;11.29;40.65;102121.78;5062391;28;45319;-54
2022/03/20 09:47:13;;;;;;;;;27.00;24.00;;;;;11.43;40.58;102121.84;5060453;28;45460;-53
2022/03/20 09:49:40;;;;;;;;;23.75;22.50;;;;;11.57;40.70;102127.16;5060377;28;45727;-54
2022/03/20 09:52:07;;;;;;;;;21.75;19.50;;;;;11.70;40.54;102124.56;5061728;28;45324;-55
2022/03/20 09:54:34;;;;;;;;;25.25;23.75;;;;;11.84;40.42;102135.16;5054986;28;45631;-55
2022/03/20 09:57:04;;;;;;;;;27.00;24.50;;;;;11.97;40.40;102122.03;5061694;28;45465;-55
2022/03/20 09:59:30;;;;;;;;;30.50;27.50;;;;;12.08;40.49;102125.56;5061563;28;46410;-54
2022/03/20 10:02:04;;;;;;;;;30.25;25.00;;;;;12.24;40.56;102126.47;5061370;28;45352;-54
2022/03/20 10:04:34;;;;;;;;;29.50;27.00;;;;;12.38;40.30;102122.97;5061687;28;45374;-55
2022/03/20 10:07:00;;;;;;;;;24.00;23.25;;;;;12.52;40.29;102123.84;5061776;28;45166;-53
2022/03/20 10:09:26;;;;;;;;;23.75;21.50;;;;;12.69;40.05;102129.09;5067946;28;45802;-54
2022/03/20 10:11:54;;;;;;;;;45.25;35.25;;;;;12.83;40.24;102118.56;5061377;28;45288;-55
2022/03/20 10:14:27;;;;;;;;;28.25;25.25;;;;;12.98;40.14;102123.81;5065617;28;45361;-55
2022/03/20 10:17:16;;;;;;;;;24.25;21.00;;;;;13.13;40.04;102124.63;5060404;28;45403;-54
2022/03/20 10:19:41;;;;;;;;;20.25;19.75;;;;;13.24;39.91;102128.13;5062015;28;47377;-57
2022/03/20 10:22:14;;;;;;;;;25.00;23.00;;;;;13.38;39.83;102130.72;5064632;27;45339;-54
2022/03/20 10:24:46;;;;;;;;;17.50;16.00;;;;;13.50;40.12;102124.53;5059346;28;45411;-55
2022/03/20 10:27:14;;;;;;;;;25.00;22.25;;;;;13.61;39.49;102128.00;5060203;28;45208;-55
2022/03/20 10:30:00;;;;;;;;;27.25;26.25;;;;;13.72;40.05;102127.97;5059408;28;46156;-54
2022/03/20 10:32:26;;;;;;;;;23.50;23.00;;;;;13.87;39.84;102137.56;5060128;28;45372;-55
2022/03/20 10:34:58;;;;;;;;;28.75;23.25;;;;;14.00;39.41;102126.91;5061349;28;45368;-55
2022/03/20 10:37:43;;;;;;;;;24.75;21.50;;;;;14.10;39.42;102126.84;5060060;28;45419;-54
2022/03/20 10:40:14;;;;;;;;;17.00;16.25;;;;;14.21;39.37;102123.25;5061147;28;46179;-57
2022/03/20 10:42:42;;;;;;;;;24.00;23.50;;;;;14.33;39.11;102125.81;5060936;28;45438;-57
2022/03/20 10:45:09;;;;;;;;;25.50;22.75;;;;;14.42;39.40;102116.91;5060966;28;45378;-58
2022/03/20 10:47:34;;;;;;;;;22.75;21.25;;;;;14.49;39.16;102117.72;5059949;28;45415;-58
2022/03/20 10:50:11;;;;;;;;;22.50;19.50;;;;;14.60;38.93;102118.50;5060628;28;45335;-58
2022/03/20 10:52:37;;;;;;;;;17.50;17.00;;;;;14.72;38.85;102114.94;5061033;28;45320;-56
2022/03/20 10:55:12;;;;;;;;;14.00;13.25;;;;;14.86;38.64;102115.66;5053751;28;45395;-57
2022/03/20 10:57:39;;;;;;;;;17.25;17.25;;;;;14.98;39.13;102119.06;5060953;28;45439;-56
2022/03/20 11:00:11;;;;;;;;;16.25;15.00;;;;;15.10;38.86;102105.69;5060576;28;45230;-57
2022/03/20 11:02:39;;;;;;;;;14.00;13.50;;;;;15.25;38.44;102104.66;5060958;28;45323;-58
2022/03/20 11:05:06;;;;;;;;;17.00;15.25;;;;;15.40;38.56;102107.09;5059857;28;45751;-57
2022/03/20 11:07:31;;;;;;;;;15.25;15.25;;;;;15.52;38.21;102103.44;5059805;28;45229;-58
2022/03/20 11:10:00;;;;;;;;;13.00;13.00;;;;;15.71;38.03;102103.16;5070431;28;47238;-57
2022/03/20 11:12:33;;;;;;;;;21.25;21.00;;;;;15.91;38.16;102109.09;5060224;28;45415;-59
2022/03/20 11:15:04;;;;;;;;;17.50;16.00;;;;;16.12;38.26;102109.66;5060121;28;45315;-47
2022/03/20 11:17:43;;;;;;;;;14.50;11.25;;;;;16.40;38.66;102102.13;5060215;28;45482;-45
2022/03/20 11:20:11;;;;;;;;;14.25;14.00;;;;;16.74;38.57;102100.63;5060409;28;45538;-46
2022/03/20 11:22:42;;;;;;;;;34.75;28.50;;;;;17.09;38.74;102096.47;5058941;28;45453;-45
2022/03/20 11:25:08;;;;;;;;;46.00;38.50;;;;;17.52;38.67;102092.94;5059070;28;45233;-49
2022/03/20 11:27:40;;;;;;;;;30.75;27.00;;;;;17.97;38.86;102099.03;5060363;28;45370;-46
2022/03/20 11:30:07;;;;;;;;;55.50;43.00;;;;;18.45;38.87;102098.75;5060425;28;46314;-49
2022/03/20 11:32:33;;;;;;;;;42.25;34.50;;;;;18.92;38.90;102100.22;5059876;28;45403;-46
2022/03/20 11:35:01;;;;;;;;;68.75;53.50;;;;;19.38;38.96;102092.69;5058928;28;45516;-47
2022/03/20 11:37:44;;;;;;;;;48.50;36.75;;;;;19.84;38.36;102098.44;5060534;28;45327;-48
2022/03/20 11:40:20;;;;;;;;;25.50;20.75;;;;;20.33;38.73;102098.63;5059668;28;46019;-48
2022/03/20 11:42:47;;;;;;;;;22.50;19.25;;;;;20.76;38.02;102092.66;5060120;28;45461;-48
2022/03/20 11:45:20;;;;;;;;;40.75;32.00;;;;;21.15;38.00;102101.09;5060093;28;45349;-48
2022/03/20 11:47:51;;;;;;;;;34.50;33.00;;;;;21.51;37.78;102093.47;5050835;28;45592;-51
2022/03/20 11:50:19;;;;;;;;;24.25;19.50;;;;;21.85;37.79;102099.34;5051726;28;46306;-50
2022/03/20 11:52:55;;;;;;;;;20.00;20.00;;;;;22.15;37.73;102090.97;5049748;28;45387;-46
2022/03/20 11:55:38;;;;;;;;;15.50;13.50;;;;;22.39;37.38;102086.44;5059399;28;45341;-51